Time;durP1;ratioP1;P1;durP2;ratioP2;P2;SDS_P1;SDS_P2;PMS_P1;PMS_P2;Temp;Humidity;BMP_temperature;BMP_pressure;BME280_temperature;BME280_humidity;BME280_pressure;Samples;Min_cycle;Max_cycle;Signal;HPM_P1;HPM_P2
2021/11/02 00:00:40;;;;;;;5.07;2.10;;;20.00;61.30;;;;;;5042414;28;20190;-67
2021/11/02 00:03:08;;;;;;;5.30;2.00;;;20.00;61.30;;;;;;5045596;28;20240;-67
2021/11/02 00:05:38;;;;;;;2.97;1.80;;;20.00;61.40;;;;;;5045955;28;20198;-67
2021/11/02 00:08:08;;;;;;;4.33;1.93;;;20.00;61.40;;;;;;5037051;28;20659;-67
2021/11/02 00:10:41;;;;;;;3.77;1.70;;;19.90;62.00;;;;;;5037988;28;20210;-67
2021/11/02 00:13:09;;;;;;;4.67;1.93;;;19.90;61.40;;;;;;5056416;28;20233;-67
2021/11/02 00:15:48;;;;;;;4.53;1.67;;;19.90;61.40;;;;;;5053571;28;20219;-67
2021/11/02 00:18:43;;;;;;;3.80;1.60;;;19.90;61.40;;;;;;5056422;28;20237;-68
2021/11/02 00:21:20;;;;;;;2.67;1.60;;;19.90;61.50;;;;;;5056681;28;20221;-67
2021/11/02 00:24:27;;;;;;;5.77;1.93;;;19.80;61.50;;;;;;5061636;28;20723;-67
2021/11/02 00:26:59;;;;;;;3.07;1.73;;;19.80;61.50;;;;;;5053241;28;20285;-67
2021/11/02 00:29:30;;;;;;;3.60;1.80;;;19.80;61.50;;;;;;5059726;28;20237;-67
2021/11/02 00:32:04;;;;;;;3.13;1.57;;;19.80;61.60;;;;;;5053469;28;20209;-67
2021/11/02 00:34:36;;;;;;;4.07;1.63;;;19.80;61.60;;;;;;5065551;28;20193;-67
2021/11/02 00:37:06;;;;;;;4.27;1.80;;;19.80;61.60;;;;;;5067241;28;20663;-67
2021/11/02 00:39:35;;;;;;;2.70;1.47;;;19.70;61.60;;;;;;5056411;28;20218;-67
2021/11/02 00:42:05;;;;;;;2.27;1.30;;;19.70;61.60;;;;;;5034539;28;20248;-67
2021/11/02 00:44:36;;;;;;;3.23;2.00;;;19.70;61.70;;;;;;5053262;28;20201;-67
2021/11/02 00:47:17;;;;;;;2.43;1.40;;;19.70;61.70;;;;;;5040263;28;20642;-67
2021/11/02 00:49:45;;;;;;;2.10;1.37;;;19.70;61.70;;;;;;5036907;28;20210;-67
2021/11/02 00:52:16;;;;;;;3.37;1.60;;;19.70;61.70;;;;;;5061521;28;20210;-67
2021/11/02 00:54:44;;;;;;;3.03;1.40;;;19.60;61.70;;;;;;5037851;28;20213;-67
2021/11/02 00:57:16;;;;;;;2.83;1.40;;;19.60;61.70;;;;;;5062003;28;20209;-67
2021/11/02 00:59:47;;;;;;;2.73;1.30;;;19.70;61.70;;;;;;5061140;28;20198;-67
2021/11/02 01:02:18;;;;;;;1.87;1.17;;;19.60;61.70;;;;;;5060338;28;20214;-67
2021/11/02 01:04:53;;;;;;;3.13;1.30;;;19.60;61.80;;;;;;5042133;28;20240;-67
2021/11/02 01:07:29;;;;;;;1.90;1.10;;;19.60;61.80;;;;;;5057902;28;20212;-67
2021/11/02 01:10:01;;;;;;;2.63;1.10;;;19.60;61.90;;;;;;5038429;28;20542;-67
2021/11/02 01:12:32;;;;;;;2.17;1.33;;;19.50;61.80;;;;;;5043492;28;20198;-67
2021/11/02 01:15:06;;;;;;;1.30;1.13;;;19.50;61.80;;;;;;5039942;28;20636;-67
2021/11/02 01:17:35;;;;;;;1.90;1.50;;;19.50;61.90;;;;;;5057586;28;20727;-67
2021/11/02 01:20:08;;;;;;;1.40;1.00;;;19.50;61.90;;;;;;5059419;28;20206;-67
2021/11/02 01:22:40;;;;;;;2.30;1.43;;;19.50;61.90;;;;;;5066181;28;20197;-67
2021/11/02 01:25:08;;;;;;;1.63;1.03;;;19.50;61.90;;;;;;5049852;28;20197;-67
2021/11/02 01:27:40;;;;;;;1.43;0.93;;;19.50;61.80;;;;;;5044562;28;20202;-67
2021/11/02 01:30:13;;;;;;;4.10;1.30;;;19.50;61.80;;;;;;5028178;28;20220;-67
2021/11/02 01:32:44;;;;;;;1.77;1.30;;;19.50;61.80;;;;;;5054921;28;20685;-67
2021/11/02 01:35:14;;;;;;;1.00;0.80;;;19.50;61.90;;;;;;5047525;28;20227;-67
2021/11/02 01:37:46;;;;;;;1.90;1.00;;;19.40;61.90;;;;;;5041067;28;20238;-67
2021/11/02 01:40:17;;;;;;;1.87;1.00;;;19.40;61.90;;;;;;5062753;28;20201;-67
2021/11/02 01:43:00;;;;;;;1.50;1.10;;;19.40;61.90;;;;;;5038063;28;20301;-67
2021/11/02 01:45:46;;;;;;;1.10;0.90;;;19.40;61.80;;;;;;5041747;28;20626;-67
2021/11/02 01:48:23;;;;;;;1.23;0.80;;;19.40;61.90;;;;;;5045052;28;20221;-67
2021/11/02 01:50:55;;;;;;;1.53;0.90;;;19.40;61.90;;;;;;5057874;28;20255;-67
2021/11/02 01:53:26;;;;;;;1.17;0.80;;;19.40;61.90;;;;;;5048385;28;20264;-67
2021/11/02 01:56:02;;;;;;;2.13;1.20;;;19.40;61.90;;;;;;5050725;28;20660;-67
2021/11/02 01:58:47;;;;;;;1.30;1.03;;;19.30;61.80;;;;;;5066193;28;20209;-67
2021/11/02 02:01:38;;;;;;;1.87;1.03;;;19.30;61.80;;;;;;5033293;28;20211;-67
2021/11/02 02:04:47;;;;;;;1.53;0.90;;;19.30;61.80;;;;;;5054262;28;20197;-67
2021/11/02 02:08:01;;;;;;;2.00;0.90;;;19.30;61.80;;;;;;5058958;28;20671;-67
2021/11/02 02:11:04;;;;;;;1.00;0.80;;;19.30;61.80;;;;;;5041210;28;20581;-67
2021/11/02 02:14:20;;;;;;;0.87;0.70;;;19.30;61.80;;;;;;5066342;28;20648;-67
2021/11/02 02:16:54;;;;;;;1.17;1.00;;;19.30;61.90;;;;;;5064303;28;20553;-67
2021/11/02 02:19:53;;;;;;;1.87;1.17;;;19.30;61.80;;;;;;5062436;28;20218;-67
2021/11/02 02:22:48;;;;;;;1.60;0.90;;;19.30;61.80;;;;;;5056373;28;20194;-67
2021/11/02 02:25:47;;;;;;;0.80;0.70;;;19.20;61.80;;;;;;5061106;28;20535;-67
2021/11/02 02:28:27;;;;;;;1.50;1.03;;;19.20;61.80;;;;;;5064713;28;20230;-67
2021/11/02 02:31:04;;;;;;;1.07;0.70;;;19.20;61.70;;;;;;5058622;28;20648;-66
2021/11/02 02:33:44;;;;;;;1.37;0.83;;;19.20;61.80;;;;;;5050656;28;20195;-67
2021/11/02 02:36:21;;;;;;;1.40;0.70;;;19.20;61.70;;;;;;5033299;28;20350;-67
2021/11/02 02:38:57;;;;;;;1.50;0.53;;;19.20;61.70;;;;;;5042023;28;20271;-67
2021/11/02 02:41:28;;;;;;;1.30;0.90;;;19.20;62.40;;;;;;5042978;28;20194;-67
2021/11/02 02:43:59;;;;;;;1.03;0.80;;;19.20;61.70;;;;;;5041343;28;20210;-67
2021/11/02 02:46:34;;;;;;;0.80;0.60;;;19.20;61.70;;;;;;5035771;28;20704;-67
2021/11/02 02:49:13;;;;;;;1.37;0.90;;;19.20;61.70;;;;;;5048858;28;20202;-67
2021/11/02 02:51:43;;;;;;;0.87;0.77;;;19.20;61.70;;;;;;5043618;28;20558;-67
2021/11/02 02:54:25;;;;;;;1.27;0.80;;;19.10;61.70;;;;;;5058716;28;20226;-67
2021/11/02 02:56:54;;;;;;;1.53;0.90;;;19.20;61.70;;;;;;5053811;28;20217;-67
2021/11/02 02:59:29;;;;;;;1.17;0.80;;;19.20;61.70;;;;;;5040369;28;20205;-67
2021/11/02 03:02:00;;;;;;;0.97;0.63;;;19.10;61.70;;;;;;5054352;28;20217;-67
2021/11/02 03:04:34;;;;;;;0.80;0.70;;;19.10;61.70;;;;;;5030008;28;20203;-67
2021/11/02 03:07:05;;;;;;;1.27;0.80;;;19.10;61.70;;;;;;5063092;28;20276;-67
2021/11/02 03:09:36;;;;;;;1.10;0.70;;;19.10;61.70;;;;;;5062286;28;20194;-67
2021/11/02 03:12:10;;;;;;;1.17;0.60;;;19.10;61.70;;;;;;5025420;28;20210;-67
2021/11/02 03:18:03;;;;;;;1.20;0.60;;;19.10;61.70;;;;;;5052456;28;20227;-67
2021/11/02 03:49:41;;;;;;;1.10;0.70;;;19.00;61.80;;;;;;5037165;28;20289;-67
2021/11/02 03:54:30;;;;;;;1.30;0.93;;;19.00;61.80;;;;;;5038970;28;20327;-67
2021/11/02 03:55:08;;;;;;;1.03;0.70;;;18.90;61.80;;;;;;5050998;28;20641;-68
2021/11/02 03:57:45;;;;;;;2.27;0.83;;;19.00;61.80;;;;;;5023827;28;20558;-67
2021/11/02 04:27:15;;;;;;;1.23;0.97;;;18.90;61.80;;;;;;5051554;28;20183;-67
2021/11/02 04:42:36;;;;;;;1.00;0.80;;;18.80;61.80;;;;;;5059850;28;20225;-67
2021/11/02 05:10:28;;;;;;;1.23;0.50;;;18.80;61.90;;;;;;5018887;28;20202;-67
2021/11/02 05:53:12;;;;;;;0.87;0.63;;;18.70;61.90;;;;;;5065448;28;20205;-67
2021/11/02 05:58:56;;;;;;;0.63;0.57;;;18.60;61.80;;;;;;5053661;28;20232;-67
2021/11/02 06:04:56;;;;;;;0.53;0.50;;;18.70;61.90;;;;;;5058841;28;20206;-67
2021/11/02 06:07:58;;;;;;;1.07;0.70;;;18.60;61.80;;;;;;5058750;28;20210;-67
2021/11/02 06:11:10;;;;;;;1.13;0.70;;;18.60;61.80;;;;;;5037303;28;20205;-67
2021/11/02 06:29:05;;;;;;;1.53;0.70;;;18.60;61.80;;;;;;5037091;28;20292;-67
2021/11/02 06:31:59;;;;;;;0.70;0.53;;;18.50;61.70;;;;;;5029583;28;20225;-67
2021/11/02 06:35:07;;;;;;;1.17;0.60;;;18.60;61.80;;;;;;5000974;28;20215;-67
2021/11/02 06:37:55;;;;;;;0.97;0.60;;;18.60;61.70;;;;;;5039909;28;20206;-65
2021/11/02 06:43:14;;;;;;;17.50;3.90;;;18.60;62.90;;;;;;5050862;28;20205;-66
2021/11/02 06:46:29;;;;;;;18.00;4.07;;;18.60;63.20;;;;;;4995563;28;20243;-67
2021/11/02 06:54:26;;;;;;;11.67;4.10;;;18.70;63.00;;;;;;4999240;28;20507;-68
2021/11/02 07:18:04;;;;;;;7.03;2.80;;;19.00;62.10;;;;;;5039193;28;20284;-69
2021/11/02 07:23:33;;;;;;;12.17;4.30;;;19.20;62.30;;;;;;5027690;28;20189;-67
2021/11/02 07:26:15;;;;;;;11.27;4.60;;;19.20;62.30;;;;;;5038368;28;20261;-67
2021/11/02 08:47:20;;;;;;;5.40;1.07;;;19.50;58.30;;;;;;5054859;28;20210;-66
2021/11/02 08:49:55;;;;;;;2.63;1.00;;;19.50;58.50;;;;;;5047473;28;20206;-66
2021/11/02 08:52:27;;;;;;;1.67;0.90;;;19.60;58.90;;;;;;5060605;28;20622;-67
2021/11/02 08:55:00;;;;;;;3.77;1.20;;;19.60;58.90;;;;;;5027454;28;20226;-67
2021/11/02 08:57:32;;;;;;;2.47;1.20;;;19.70;59.10;;;;;;5057064;28;20194;-69
2021/11/02 09:00:06;;;;;;;2.07;0.90;;;19.70;59.10;;;;;;5047073;28;20544;-69
2021/11/02 09:02:47;;;;;;;3.53;1.10;;;19.70;59.20;;;;;;5055634;28;20664;-69
2021/11/02 09:05:45;;;;;;;3.20;1.00;;;19.80;59.30;;;;;;5053781;28;20197;-66
2021/11/02 09:08:20;;;;;;;2.43;1.00;;;19.80;59.30;;;;;;5013617;28;20633;-67
2021/11/02 09:11:15;;;;;;;0.93;0.70;;;19.90;59.40;;;;;;5053050;28;20197;-65
2021/11/02 09:13:52;;;;;;;2.23;1.07;;;19.90;59.40;;;;;;5055215;28;20208;-67
2021/11/02 09:16:23;;;;;;;2.60;1.03;;;19.90;59.30;;;;;;5046838;28;20749;-68
2021/11/02 09:18:56;;;;;;;3.20;1.23;;;19.90;59.40;;;;;;5039954;28;20236;-69
2021/11/02 09:21:24;;;;;;;3.70;0.97;;;20.00;59.50;;;;;;5043694;28;20281;-68
2021/11/02 09:24:01;;;;;;;3.70;1.20;;;20.00;59.60;;;;;;5033896;28;20613;-69
2021/11/02 09:26:31;;;;;;;2.80;1.00;;;20.00;59.50;;;;;;5059045;28;20251;-69
2021/11/02 09:29:04;;;;;;;3.13;1.03;;;20.00;59.60;;;;;;5037980;28;20245;-68
2021/11/02 09:31:35;;;;;;;4.43;1.20;;;20.10;59.70;;;;;;5033169;28;20204;-67
2021/11/02 09:34:05;;;;;;;4.60;1.10;;;20.10;59.60;;;;;;5054188;28;20216;-66
2021/11/02 09:36:44;;;;;;;6.87;1.57;;;20.10;59.50;;;;;;5059186;28;20993;-70
2021/11/02 09:39:20;;;;;;;9.87;1.63;;;20.20;59.50;;;;;;5040629;28;20664;-68
2021/11/02 09:42:30;;;;;;;2.20;1.00;;;20.20;59.50;;;;;;5055244;28;20266;-71
2021/11/02 09:45:39;;;;;;;3.53;1.10;;;20.20;59.40;;;;;;5059367;28;20182;-69
2021/11/02 09:48:39;;;;;;;6.57;1.10;;;20.20;59.40;;;;;;5053258;28;20220;-69
2021/11/02 09:51:35;;;;;;;2.50;0.80;;;20.20;59.40;;;;;;5055743;28;20267;-69
2021/11/02 09:54:31;;;;;;;3.97;1.03;;;20.30;59.30;;;;;;5027860;28;20459;-68
2021/11/02 09:57:41;;;;;;;4.73;0.93;;;20.30;59.20;;;;;;5059668;28;20388;-69
2021/11/02 10:00:50;;;;;;;3.07;0.90;;;20.30;59.30;;;;;;5050972;28;20193;-66
2021/11/02 10:04:09;;;;;;;3.57;1.10;;;20.30;59.20;;;;;;5053499;28;20198;-67
2021/11/02 10:07:01;;;;;;;2.37;0.70;;;20.30;59.10;;;;;;4973912;28;20209;-65
2021/11/02 10:10:09;;;;;;;2.07;1.10;;;20.40;59.20;;;;;;5058491;28;20233;-66
2021/11/02 10:13:02;;;;;;;3.13;1.20;;;20.40;59.30;;;;;;5055556;28;20214;-67
2021/11/02 10:15:58;;;;;;;3.13;0.93;;;20.50;58.50;;;;;;5050628;28;20245;-70
2021/11/02 10:19:10;;;;;;;2.00;0.80;;;20.40;58.40;;;;;;5054690;28;20776;-69
2021/11/02 10:21:46;;;;;;;2.63;0.93;;;20.40;58.00;;;;;;5040761;28;20293;-70
2021/11/02 10:25:15;;;;;;;1.73;0.80;;;20.30;57.80;;;;;;5052840;28;20265;-70
2021/11/02 10:28:39;;;;;;;2.30;1.00;;;20.30;57.70;;;;;;4997745;28;20331;-66
2021/11/02 10:31:35;;;;;;;2.33;0.97;;;20.30;58.40;;;;;;4996148;28;20223;-70
2021/11/02 10:34:32;;;;;;;3.20;1.07;;;20.30;58.70;;;;;;4997929;28;20218;-70
2021/11/02 10:38:03;;;;;;;2.17;1.20;;;20.30;58.70;;;;;;4994973;28;20195;-70
2021/11/02 10:40:59;;;;;;;1.87;0.90;;;20.40;58.80;;;;;;4943054;29;20206;-70
2021/11/02 10:43:47;;;;;;;4.17;0.87;;;20.40;58.80;;;;;;4996869;28;20639;-71
2021/11/02 10:46:37;;;;;;;5.83;0.90;;;20.40;58.80;;;;;;5048320;28;20827;-70
2021/11/02 10:50:06;;;;;;;5.53;0.70;;;20.40;58.80;;;;;;5058996;28;20209;-68
2021/11/02 10:52:42;;;;;;;1.93;1.00;;;20.50;58.80;;;;;;5001217;28;20219;-67
2021/11/02 10:55:28;;;;;;;1.83;0.80;;;20.50;58.70;;;;;;4992823;28;20215;-65
2021/11/02 10:58:23;;;;;;;0.93;0.70;;;20.50;58.70;;;;;;4998223;28;20213;-65
2021/11/02 11:00:55;;;;;;;0.97;0.80;;;20.50;58.70;;;;;;4993610;28;20223;-66
2021/11/02 11:03:30;;;;;;;1.33;0.80;;;20.50;56.90;;;;;;5001838;28;20238;-66
2021/11/02 11:06:06;;;;;;;2.93;0.90;;;20.40;56.70;;;;;;4996499;28;20292;-66
2021/11/02 11:08:43;;;;;;;1.27;1.00;;;20.30;56.90;;;;;;4999016;28;20701;-66
2021/11/02 11:11:17;;;;;;;2.90;0.80;;;20.30;57.20;;;;;;4999799;28;20551;-65
2021/11/02 11:13:56;;;;;;;5.13;1.50;;;20.20;57.30;;;;;;5031495;28;20662;-66
2021/11/02 11:16:42;;;;;;;2.00;1.10;;;20.20;57.40;;;;;;5062597;28;20202;-66
2021/11/02 11:19:43;;;;;;;2.00;1.10;;;20.10;57.60;;;;;;5057641;28;20290;-66
2021/11/02 11:22:23;;;;;;;1.43;0.90;;;20.10;57.70;;;;;;5060124;28;20204;-65
2021/11/02 11:25:34;;;;;;;2.60;0.97;;;20.10;57.70;;;;;;5043873;28;20208;-65
2021/11/02 11:28:33;;;;;;;2.73;0.90;;;20.00;57.80;;;;;;5037108;28;20237;-65
2021/11/02 11:31:05;;;;;;;2.17;1.00;;;20.00;58.00;;;;;;5053792;28;20214;-69
2021/11/02 11:33:44;;;;;;;3.27;1.10;;;20.00;58.50;;;;;;5033768;28;20201;-68
2021/11/02 11:36:31;;;;;;;3.27;1.07;;;20.00;59.10;;;;;;5054448;28;20230;-65
2021/11/02 11:39:05;;;;;;;1.00;0.80;;;20.10;59.30;;;;;;5056447;28;20222;-66
2021/11/02 11:41:37;;;;;;;1.83;0.73;;;20.10;59.40;;;;;;5043114;28;20197;-66
2021/11/02 11:44:17;;;;;;;1.13;0.87;;;20.10;59.30;;;;;;5058976;28;20225;-66
2021/11/02 11:46:47;;;;;;;1.23;0.90;;;20.20;59.40;;;;;;5063169;28;20194;-68
2021/11/02 11:49:27;;;;;;;1.40;0.90;;;20.20;59.40;;;;;;5021390;28;20212;-69
2021/11/02 11:51:59;;;;;;;1.13;0.90;;;20.30;59.60;;;;;;5037455;28;20268;-69
2021/11/02 11:54:50;;;;;;;2.20;1.00;;;20.30;59.60;;;;;;5051680;28;20579;-68
2021/11/02 11:57:31;;;;;;;1.03;0.80;;;20.30;59.50;;;;;;5058511;28;20200;-66
2021/11/02 12:00:21;;;;;;;2.60;0.97;;;20.30;59.50;;;;;;5060623;28;20254;-69
2021/11/02 12:03:22;;;;;;;3.60;1.07;;;20.40;59.50;;;;;;5048511;28;20194;-69
2021/11/02 12:06:20;;;;;;;2.60;0.87;;;20.40;59.40;;;;;;5061411;28;20763;-70
2021/11/02 12:09:19;;;;;;;1.40;0.70;;;20.50;59.40;;;;;;5033673;28;20205;-70
2021/11/02 12:12:13;;;;;;;1.97;0.77;;;20.50;59.50;;;;;;5060384;28;20190;-69
2021/11/02 12:14:49;;;;;;;1.50;1.10;;;20.50;59.40;;;;;;5037182;28;20672;-70
2021/11/02 12:17:34;;;;;;;1.40;0.80;;;20.50;59.40;;;;;;5057153;28;20202;-70
2021/11/02 12:20:15;;;;;;;1.60;0.87;;;20.50;59.30;;;;;;5048261;28;20226;-71
2021/11/02 12:22:59;;;;;;;1.93;0.73;;;20.60;59.30;;;;;;5037874;28;20208;-69
2021/11/02 12:25:38;;;;;;;1.40;1.00;;;20.60;59.20;;;;;;5065570;28;20216;-67
2021/11/02 12:28:41;;;;;;;2.03;0.77;;;20.60;59.30;;;;;;5064915;28;20190;-71
2021/11/02 12:31:17;;;;;;;1.77;0.93;;;20.70;59.30;;;;;;5037592;28;20208;-71
2021/11/02 12:34:10;;;;;;;1.53;0.80;;;20.70;59.30;;;;;;5065159;28;20201;-69
2021/11/02 12:36:49;;;;;;;1.40;0.60;;;20.70;59.30;;;;;;5042243;28;20195;-68
2021/11/02 12:39:28;;;;;;;2.30;0.70;;;20.70;59.00;;;;;;5024495;28;20218;-67
2021/11/02 12:42:00;;;;;;;0.80;0.70;;;20.70;59.10;;;;;;5055421;28;20200;-68
2021/11/02 12:44:38;;;;;;;1.43;1.20;;;20.80;59.20;;;;;;5044322;28;20206;-67
2021/11/02 12:47:20;;;;;;;1.60;0.60;;;20.70;59.00;;;;;;5060632;28;20201;-72
2021/11/02 12:49:56;;;;;;;5.17;1.00;;;20.80;59.10;;;;;;5064569;28;20525;-71
2021/11/02 12:52:31;;;;;;;1.97;0.80;;;20.80;59.10;;;;;;5046716;28;20189;-72
2021/11/02 12:55:25;;;;;;;1.10;0.80;;;20.80;59.10;;;;;;5060482;28;20552;-72
2021/11/02 12:58:07;;;;;;;0.70;0.70;;;20.80;59.10;;;;;;5057546;28;20647;-71
2021/11/02 13:00:58;;;;;;;0.83;0.70;;;20.80;59.10;;;;;;5060971;28;20567;-70
2021/11/02 13:03:36;;;;;;;1.33;0.70;;;20.90;59.20;;;;;;5058524;28;20209;-70
2021/11/02 13:06:21;;;;;;;2.07;0.70;;;20.90;59.20;;;;;;5057411;28;20202;-69
2021/11/02 13:09:02;;;;;;;1.90;0.73;;;20.90;59.00;;;;;;5065287;28;20209;-68
2021/11/02 13:11:34;;;;;;;1.10;0.70;;;20.90;59.00;;;;;;5034804;28;20271;-68
2021/11/02 13:14:16;;;;;;;0.80;0.50;;;20.90;58.90;;;;;;5035439;28;20929;-68
2021/11/02 13:17:05;;;;;;;1.17;0.70;;;20.90;58.80;;;;;;5049062;28;20217;-67
2021/11/02 13:19:51;;;;;;;1.00;0.70;;;20.90;58.60;;;;;;5046684;28;20225;-69
2021/11/02 13:22:20;;;;;;;0.80;0.70;;;20.90;58.70;;;;;;5058019;28;20212;-69
2021/11/02 13:25:07;;;;;;;2.37;0.60;;;20.90;58.20;;;;;;5063771;28;20193;-68
2021/11/02 13:27:50;;;;;;;0.67;0.60;;;20.90;57.00;;;;;;5050317;28;20206;-69
2021/11/02 13:30:34;;;;;;;1.80;0.77;;;20.80;57.10;;;;;;5057589;28;20226;-72
2021/11/02 13:33:20;;;;;;;0.80;0.63;;;20.80;58.70;;;;;;5055752;28;20236;-71
2021/11/02 13:36:04;;;;;;;0.90;0.60;;;20.80;59.30;;;;;;5040404;28;20278;-70
2021/11/02 13:38:51;;;;;;;3.13;0.60;;;20.80;59.50;;;;;;5040748;28;20328;-68
2021/11/02 13:41:30;;;;;;;1.27;0.80;;;20.90;59.60;;;;;;5054340;28;20561;-70
2021/11/02 13:44:16;;;;;;;1.93;0.73;;;20.90;59.70;;;;;;5050622;28;20209;-72
2021/11/02 13:46:59;;;;;;;1.90;0.70;;;21.00;59.90;;;;;;5043398;28;20210;-69
2021/11/02 13:49:28;;;;;;;3.43;0.70;;;21.00;59.90;;;;;;5047793;28;20256;-71
2021/11/02 13:51:59;;;;;;;0.93;0.60;;;21.00;59.80;;;;;;5055992;28;20217;-70
2021/11/02 13:54:28;;;;;;;2.23;0.70;;;21.00;59.90;;;;;;5022543;28;20552;-70
2021/11/02 13:56:59;;;;;;;0.83;0.57;;;21.00;59.80;;;;;;5057581;28;20198;-67
2021/11/02 13:59:30;;;;;;;0.80;0.60;;;21.00;59.80;;;;;;5044711;28;20294;-67
2021/11/02 14:02:00;;;;;;;1.27;0.77;;;21.00;59.80;;;;;;5055994;28;20202;-67
2021/11/02 14:04:43;;;;;;;0.60;0.53;;;21.00;59.70;;;;;;5061308;28;20229;-66
2021/11/02 14:07:29;;;;;;;0.73;0.50;;;21.00;59.60;;;;;;5034608;28;20218;-69
2021/11/02 14:10:11;;;;;;;0.83;0.53;;;21.00;59.50;;;;;;5056951;28;20223;-68
2021/11/02 14:12:55;;;;;;;1.90;0.73;;;21.10;59.60;;;;;;5058366;28;20668;-70
2021/11/02 14:15:31;;;;;;;5.70;0.73;;;21.10;59.60;;;;;;5053086;28;20519;-71
2021/11/02 14:18:14;;;;;;;0.70;0.60;;;21.10;59.60;;;;;;5055743;28;20202;-73
2021/11/02 14:20:51;;;;;;;1.53;0.73;;;21.10;59.60;;;;;;5051535;28;20231;-68
2021/11/02 14:23:52;;;;;;;0.60;0.50;;;21.10;59.50;;;;;;5062915;28;20617;-70
2021/11/02 14:26:38;;;;;;;2.17;0.50;;;21.10;59.50;;;;;;5041407;28;20689;-67
2021/11/02 14:29:10;;;;;;;2.63;0.70;;;21.20;59.60;;;;;;5062094;28;20238;-70
2021/11/02 14:31:45;;;;;;;0.53;0.50;;;21.20;59.20;;;;;;5055872;28;20213;-71
2021/11/02 14:34:38;;;;;;;0.83;0.60;;;21.20;59.10;;;;;;5057974;28;20652;-73
2021/11/02 14:37:21;;;;;;;1.37;0.43;;;21.20;59.00;;;;;;5065009;28;20213;-69
2021/11/02 14:40:08;;;;;;;0.87;0.70;;;21.20;59.10;;;;;;5034463;28;20232;-68
2021/11/02 14:42:54;;;;;;;1.10;0.70;;;21.20;59.00;;;;;;5057035;28;20206;-73
2021/11/02 14:45:49;;;;;;;0.77;0.60;;;21.20;58.70;;;;;;5025824;28;20194;-69
2021/11/02 14:48:32;;;;;;;0.87;0.60;;;21.20;59.20;;;;;;5059800;28;20201;-70
2021/11/02 14:51:25;;;;;;;0.80;0.60;;;21.20;59.10;;;;;;5053465;28;20259;-69
2021/11/02 14:54:20;;;;;;;1.43;0.77;;;21.30;59.20;;;;;;5052069;28;20190;-70
2021/11/02 14:57:31;;;;;;;0.67;0.57;;;21.30;59.10;;;;;;5057259;28;20233;-66
2021/11/02 15:00:07;;;;;;;1.00;0.60;;;21.30;59.10;;;;;;5060771;28;20201;-67
2021/11/02 15:02:43;;;;;;;0.50;0.50;;;21.30;59.00;;;;;;5055425;28;20565;-68
2021/11/02 15:05:19;;;;;;;0.60;0.60;;;21.20;58.90;;;;;;5060387;28;20751;-70
2021/11/02 15:07:53;;;;;;;0.80;0.80;;;21.30;58.90;;;;;;5045345;28;20293;-69
2021/11/02 15:10:25;;;;;;;0.50;0.50;;;21.30;59.10;;;;;;5047738;28;20275;-69
2021/11/02 15:12:55;;;;;;;0.83;0.70;;;21.30;59.10;;;;;;5058726;28;20232;-69
2021/11/02 15:15:28;;;;;;;0.80;0.70;;;21.30;58.80;;;;;;5051398;28;20205;-69
2021/11/02 15:18:35;;;;;;;0.70;0.70;;;21.30;58.90;;;;;;5040433;28;20207;-68
2021/11/02 15:21:11;;;;;;;1.40;0.73;;;21.30;58.70;;;;;;5044959;28;20222;-69
2021/11/02 15:23:47;;;;;;;0.80;0.70;;;21.40;58.80;;;;;;5039606;28;20202;-69
2021/11/02 15:27:06;;;;;;;1.13;0.70;;;21.30;59.00;;;;;;5036909;28;20762;-69
2021/11/02 15:29:59;;;;;;;0.63;0.63;;;21.40;59.20;;;;;;5055580;28;20238;-69
2021/11/02 15:32:37;;;;;;;1.57;0.70;;;21.40;58.80;;;;;;4991271;28;20221;-68
2021/11/02 15:35:14;;;;;;;1.20;0.60;;;21.40;59.20;;;;;;5037561;28;20307;-67
2021/11/02 15:37:48;;;;;;;1.13;0.73;;;21.40;59.10;;;;;;5019496;28;20214;-67
2021/11/02 15:40:41;;;;;;;0.70;0.70;;;21.40;59.70;;;;;;5022930;28;20249;-69
2021/11/02 15:43:15;;;;;;;0.83;0.70;;;21.40;58.90;;;;;;5039025;28;20218;-70
2021/11/02 15:46:06;;;;;;;0.77;0.63;;;21.50;58.80;;;;;;5043584;28;20195;-70
2021/11/02 15:48:43;;;;;;;0.77;0.50;;;21.50;58.70;;;;;;5040288;28;20203;-69
2021/11/02 15:51:20;;;;;;;0.80;0.80;;;21.50;58.80;;;;;;5021577;28;20203;-70
2021/11/02 15:53:54;;;;;;;0.60;0.60;;;21.50;58.80;;;;;;5041756;28;20567;-70
2021/11/02 15:56:27;;;;;;;1.10;1.00;;;21.50;58.90;;;;;;5036310;28;20206;-66
2021/11/02 15:59:06;;;;;;;0.70;0.70;;;21.50;58.90;;;;;;5045216;28;20306;-65
2021/11/02 16:01:43;;;;;;;0.60;0.60;;;21.50;58.80;;;;;;5032580;28;20650;-68
2021/11/02 16:04:24;;;;;;;1.80;0.80;;;21.60;58.80;;;;;;5025404;28;20693;-69
2021/11/02 16:07:05;;;;;;;0.80;0.80;;;21.60;58.70;;;;;;5023950;28;20217;-69
2021/11/02 16:09:58;;;;;;;0.83;0.80;;;21.50;58.50;;;;;;5024695;28;20318;-70
2021/11/02 16:12:31;;;;;;;1.40;0.70;;;21.60;58.60;;;;;;5046688;28;20288;-69
2021/11/02 16:15:38;;;;;;;0.80;0.60;;;21.60;58.60;;;;;;5039929;28;20205;-69
2021/11/02 16:18:52;;;;;;;1.70;0.97;;;21.60;58.60;;;;;;5038966;28;20214;-70
2021/11/02 16:21:23;;;;;;;1.00;0.90;;;21.60;58.60;;;;;;5053001;28;20249;-70
2021/11/02 16:24:04;;;;;;;1.07;1.00;;;21.60;58.50;;;;;;5029297;28;20206;-70
2021/11/02 16:26:39;;;;;;;0.90;0.90;;;21.60;56.70;;;;;;5035159;28;20198;-68
2021/11/02 16:29:18;;;;;;;2.47;1.00;;;21.50;55.80;;;;;;5046332;28;20320;-68
2021/11/02 16:31:52;;;;;;;2.83;1.00;;;21.40;55.90;;;;;;5060991;28;20205;-68
2021/11/02 16:34:27;;;;;;;1.30;1.20;;;21.30;56.20;;;;;;5045069;28;20202;-68
2021/11/02 16:37:01;;;;;;;1.30;1.20;;;21.20;56.50;;;;;;5042573;28;20182;-67
2021/11/02 16:39:32;;;;;;;1.93;1.30;;;21.10;56.60;;;;;;5059868;28;20216;-68
2021/11/02 16:42:08;;;;;;;2.13;1.40;;;21.00;56.60;;;;;;5057610;28;20198;-67
2021/11/02 16:44:40;;;;;;;2.03;1.70;;;21.00;56.70;;;;;;5060953;28;20680;-68
2021/11/02 16:47:34;;;;;;;2.57;1.60;;;20.90;56.80;;;;;;5033985;28;20204;-68
2021/11/02 16:50:12;;;;;;;1.90;1.60;;;20.90;56.80;;;;;;5062358;28;20263;-68
2021/11/02 16:52:42;;;;;;;2.83;1.60;;;20.80;57.10;;;;;;5048034;28;20206;-68
2021/11/02 16:55:15;;;;;;;1.77;1.60;;;20.80;57.20;;;;;;5054220;28;20217;-68
2021/11/02 16:57:47;;;;;;;2.60;1.70;;;20.70;57.30;;;;;;5050755;28;20237;-68
2021/11/02 17:00:28;;;;;;;2.03;1.70;;;20.70;57.40;;;;;;5056091;28;20377;-68
2021/11/02 17:03:04;;;;;;;2.93;1.47;;;20.60;57.50;;;;;;5046684;28;20197;-68
2021/11/02 17:05:37;;;;;;;1.23;0.97;;;20.50;57.60;;;;;;5038562;28;20236;-67
2021/11/02 17:08:15;;;;;;;1.97;1.60;;;20.60;57.70;;;;;;5026654;28;20218;-68
2021/11/02 17:11:06;;;;;;;2.00;1.40;;;20.60;57.80;;;;;;5062740;28;20197;-68
2021/11/02 17:13:38;;;;;;;1.67;1.50;;;20.50;57.90;;;;;;5045580;28;20649;-68
2021/11/02 17:16:24;;;;;;;2.30;2.03;;;20.50;57.90;;;;;;5039391;28;20212;-68
2021/11/02 17:19:07;;;;;;;2.20;1.37;;;20.40;57.90;;;;;;5051981;28;20217;-68
2021/11/02 17:21:39;;;;;;;2.40;1.47;;;20.40;58.00;;;;;;5060358;28;20232;-68
2021/11/02 17:24:14;;;;;;;1.73;1.50;;;20.40;58.00;;;;;;5040153;28;20241;-68
2021/11/02 17:26:47;;;;;;;1.83;1.53;;;20.40;58.20;;;;;;5059343;28;20233;-69
2021/11/02 17:29:18;;;;;;;1.67;1.50;;;20.30;58.10;;;;;;5057173;28;20623;-67
2021/11/02 17:31:56;;;;;;;3.33;1.65;;;20.30;58.20;;;;;;5033695;28;20438;-71
2021/11/02 17:34:29;;;;;;;2.53;1.40;;;20.30;58.40;;;;;;5061674;28;20208;-68
2021/11/02 17:37:01;;;;;;;5.90;1.60;;;20.30;58.40;;;;;;5059175;28;20677;-68
2021/11/02 17:39:44;;;;;;;2.70;1.60;;;20.30;58.60;;;;;;5046136;28;20268;-67
2021/11/02 17:42:19;;;;;;;2.07;1.60;;;20.30;58.60;;;;;;5040603;28;20815;-68
2021/11/02 17:44:50;;;;;;;2.97;1.33;;;20.30;58.70;;;;;;5058857;28;20197;-68
2021/11/02 17:47:21;;;;;;;5.63;1.60;;;20.30;58.70;;;;;;5061674;28;20212;-67
2021/11/02 17:49:50;;;;;;;3.43;1.60;;;20.30;58.60;;;;;;5064949;28;20208;-68
2021/11/02 17:52:21;;;;;;;11.27;1.83;;;20.30;58.60;;;;;;5063416;28;20205;-66
2021/11/02 17:54:54;;;;;;;1.67;1.33;;;20.30;58.70;;;;;;5062608;28;20283;-67
2021/11/02 17:57:25;;;;;;;3.50;1.60;;;20.30;58.50;;;;;;5064673;28;20210;-67
2021/11/02 18:00:09;;;;;;;8.73;1.80;;;20.40;58.50;;;;;;5061547;28;20352;-66
2021/11/02 18:02:38;;;;;;;1.50;1.40;;;20.40;58.50;;;;;;5064123;28;20538;-67
2021/11/02 18:05:31;;;;;;;1.87;1.40;;;20.40;58.40;;;;;;5038542;28;20197;-67
2021/11/02 18:08:07;;;;;;;2.33;1.83;;;20.40;58.30;;;;;;5057981;28;20299;-68
2021/11/02 18:10:49;;;;;;;2.13;1.30;;;20.50;58.30;;;;;;5066868;28;20276;-67
2021/11/02 18:13:20;;;;;;;1.63;1.40;;;20.50;58.10;;;;;;5062318;28;20201;-67
2021/11/02 18:15:54;;;;;;;2.87;1.50;;;20.50;58.10;;;;;;5058331;28;20201;-66
2021/11/02 18:18:36;;;;;;;1.43;1.33;;;20.60;58.00;;;;;;5058973;28;20221;-66
2021/11/02 18:21:17;;;;;;;2.47;1.50;;;20.50;58.00;;;;;;5036581;28;20232;-67
2021/11/02 18:23:52;;;;;;;2.50;1.50;;;20.50;58.00;;;;;;5058996;28;20199;-66
2021/11/02 18:26:34;;;;;;;1.40;1.30;;;20.60;57.90;;;;;;5062021;28;20710;-66
2021/11/02 18:29:06;;;;;;;2.20;1.67;;;20.60;57.80;;;;;;5033523;28;20215;-66